Holly Ridge, Louisiana
Current Conditions -  °F | °C
As of 1:53 PM on Wednesday 28 Jan 2015 (Local Time) from KMLU Reporting Station
Clear Clear  
Wind Chill: 68°   Ceiling: Unl
Heat Index: 68°   Visibility: 10mi
Dew Point: 41°   Wind: 6mph
Humidity: 37%   Direction: 150°SSE
Pressure: 30.17"   Gusts: NA
Location:  32.4475°N, 91.7992°W
Report Text: KMLU 281953Z 15005KT 10SM CLR 20/05 A3017 RMK AO2 SLP217 T02000050
Loading
Personal Weather Stations






























Interactive Weather Map New forecast layout! Learn more

10-Day Weather Forecast

Advertisements
Track Severe Weather on mobile